Terminal Aerodrome Forecast
Issued by NWS

Home | Current Version | Previous Version | Text Only | Print | Product List | Glossary On
Versions: 1 2 3 4 5 6 7 8 9 10 11 12 13 14 15 16 17 18 19 20 21 22 23 24 25 26 27 28 29
000
FTUS41 KBTV 261738
TAFPBG
TAF
KPBG 261738Z 2618/2718 35006KT P6SM BKN150 BKN200
     FM270000 35009KT P6SM OVC090
     FM271000 35014G20KT 6SM -SN OVC035
     FM271500 35020G30KT 1 1/2SM -SN BR OVC025=

USA.gov is the U.S. government's official web portal to all federal, state and local government web resources and services.